sensor_id;sensor_type;location;lat;lon;timestamp;pressure;altitude;pressure_sealevel;temperature;humidity
49377;BME280;35253;34.688;33.040;2023-05-02T00:01:01;101242.88;;;18.03;100.00
49377;BME280;35253;34.688;33.040;2023-05-02T00:03:30;101247.25;;;18.04;100.00
49377;BME280;35253;34.688;33.040;2023-05-02T00:05:57;101239.41;;;18.01;100.00
49377;BME280;35253;34.688;33.040;2023-05-02T00:08:23;101253.88;;;18.00;100.00
49377;BME280;35253;34.688;33.040;2023-05-02T00:10:49;101247.03;;;18.07;100.00
49377;BME280;35253;34.688;33.040;2023-05-02T00:13:15;101255.13;;;18.07;100.00
49377;BME280;35253;34.688;33.040;2023-05-02T00:15:41;101249.94;;;18.04;100.00
49377;BME280;35253;34.688;33.040;2023-05-02T00:18:06;101250.31;;;17.99;100.00
49377;BME280;35253;34.688;33.040;2023-05-02T00:20:32;101248.75;;;17.97;100.00
49377;BME280;35253;34.688;33.040;2023-05-02T00:22:58;101249.22;;;17.91;100.00
49377;BME280;35253;34.688;33.040;2023-05-02T00:25:23;101249.34;;;17.78;100.00
49377;BME280;35253;34.688;33.040;2023-05-02T00:27:49;101252.94;;;17.68;100.00
49377;BME280;35253;34.688;33.040;2023-05-02T00:30:16;101255.47;;;17.69;100.00
49377;BME280;35253;34.688;33.040;2023-05-02T00:32:42;101246.91;;;17.64;100.00
49377;BME280;35253;34.688;33.040;2023-05-02T00:35:09;101251.91;;;17.57;100.00
49377;BME280;35253;34.688;33.040;2023-05-02T00:37:35;101245.75;;;17.55;100.00
49377;BME280;35253;34.688;33.040;2023-05-02T00:40:01;101249.22;;;17.69;100.00
49377;BME280;35253;34.688;33.040;2023-05-02T00:42:27;101239.16;;;17.60;100.00
49377;BME280;35253;34.688;33.040;2023-05-02T00:44:56;101237.34;;;17.60;100.00
49377;BME280;35253;34.688;33.040;2023-05-02T00:47:22;101238.19;;;17.61;100.00
49377;BME280;35253;34.688;33.040;2023-05-02T00:49:51;101241.88;;;17.71;100.00
49377;BME280;35253;34.688;33.040;2023-05-02T00:52:17;101246.41;;;17.70;100.00
49377;BME280;35253;34.688;33.040;2023-05-02T00:54:43;101247.03;;;17.74;100.00
49377;BME280;35253;34.688;33.040;2023-05-02T00:57:08;101247.78;;;17.76;100.00
49377;BME280;35253;34.688;33.040;2023-05-02T00:59:35;101244.84;;;17.68;100.00
49377;BME280;35253;34.688;33.040;2023-05-02T01:02:31;101243.13;;;17.67;100.00
49377;BME280;35253;34.688;33.040;2023-05-02T01:05:24;101243.63;;;17.72;100.00
49377;BME280;35253;34.688;33.040;2023-05-02T01:08:09;101244.09;;;17.66;100.00
49377;BME280;35253;34.688;33.040;2023-05-02T01:10:48;101240.25;;;17.57;100.00
49377;BME280;35253;34.688;33.040;2023-05-02T01:13:27;101253.66;;;17.59;100.00
49377;BME280;35253;34.688;33.040;2023-05-02T01:15:55;101255.34;;;17.60;100.00
49377;BME280;35253;34.688;33.040;2023-05-02T01:18:24;101252.53;;;17.61;100.00
49377;BME280;35253;34.688;33.040;2023-05-02T01:20:59;101258.53;;;17.65;100.00
49377;BME280;35253;34.688;33.040;2023-05-02T01:26:29;101265.91;;;17.63;100.00
49377;BME280;35253;34.688;33.040;2023-05-02T01:29:05;101264.69;;;17.67;100.00
49377;BME280;35253;34.688;33.040;2023-05-02T01:31:38;101261.13;;;17.66;100.00
49377;BME280;35253;34.688;33.040;2023-05-02T01:34:08;101256.34;;;17.70;100.00
49377;BME280;35253;34.688;33.040;2023-05-02T01:36:41;101252.94;;;17.68;100.00
49377;BME280;35253;34.688;33.040;2023-05-02T01:39:17;101263.47;;;17.71;100.00
49377;BME280;35253;34.688;33.040;2023-05-02T01:41:43;101267.44;;;17.43;100.00
49377;BME280;35253;34.688;33.040;2023-05-02T01:44:12;101273.78;;;17.20;100.00
49377;BME280;35253;34.688;33.040;2023-05-02T01:46:40;101270.94;;;17.10;100.00
49377;BME280;35253;34.688;33.040;2023-05-02T01:49:08;101262.91;;;17.32;100.00
49377;BME280;35253;34.688;33.040;2023-05-02T01:51:39;101266.22;;;17.47;100.00
49377;BME280;35253;34.688;33.040;2023-05-02T01:54:07;101272.59;;;17.57;100.00
49377;BME280;35253;34.688;33.040;2023-05-02T01:56:35;101271.75;;;17.56;100.00
49377;BME280;35253;34.688;33.040;2023-05-02T01:59:06;101269.84;;;17.59;100.00
49377;BME280;35253;34.688;33.040;2023-05-02T02:01:35;101265.56;;;17.67;100.00
49377;BME280;35253;34.688;33.040;2023-05-02T02:04:01;101269.59;;;17.62;100.00
49377;BME280;35253;34.688;33.040;2023-05-02T02:06:28;101262.00;;;17.67;100.00
49377;BME280;35253;34.688;33.040;2023-05-02T02:08:55;101261.25;;;17.65;100.00
49377;BME280;35253;34.688;33.040;2023-05-02T02:11:26;101261.50;;;17.62;100.00
49377;BME280;35253;34.688;33.040;2023-05-02T02:14:06;101256.22;;;17.60;100.00
49377;BME280;35253;34.688;33.040;2023-05-02T02:16:37;101256.34;;;17.59;100.00
49377;BME280;35253;34.688;33.040;2023-05-02T02:19:09;101259.06;;;17.59;100.00
49377;BME280;35253;34.688;33.040;2023-05-02T02:21:35;101259.06;;;17.59;100.00
49377;BME280;35253;34.688;33.040;2023-05-02T02:24:04;101258.06;;;17.60;100.00
49377;BME280;35253;34.688;33.040;2023-05-02T02:26:31;101263.66;;;17.56;100.00
49377;BME280;35253;34.688;33.040;2023-05-02T02:28:57;101263.72;;;17.68;100.00
49377;BME280;35253;34.688;33.040;2023-05-02T02:31:29;101260.41;;;17.75;100.00
49377;BME280;35253;34.688;33.040;2023-05-02T02:33:55;101269.22;;;17.77;100.00
49377;BME280;35253;34.688;33.040;2023-05-02T02:44:46;101267.63;;;17.64;100.00
49377;BME280;35253;34.688;33.040;2023-05-02T02:52:32;101287.63;;;17.83;100.00
49377;BME280;35253;34.688;33.040;2023-05-02T03:01:02;101301.34;;;17.80;100.00
49377;BME280;35253;34.688;33.040;2023-05-02T03:03:31;101302.63;;;17.52;100.00
49377;BME280;35253;34.688;33.040;2023-05-02T03:05:58;101310.97;;;17.49;100.00
49377;BME280;35253;34.688;33.040;2023-05-02T03:08:23;101308.97;;;17.40;100.00
49377;BME280;35253;34.688;33.040;2023-05-02T03:10:49;101314.88;;;17.56;100.00
49377;BME280;35253;34.688;33.040;2023-05-02T03:13:15;101318.00;;;17.63;100.00
49377;BME280;35253;34.688;33.040;2023-05-02T03:18:16;101327.44;;;17.69;100.00
49377;BME280;35253;34.688;33.040;2023-05-02T03:20:43;101323.06;;;17.68;100.00
49377;BME280;35253;34.688;33.040;2023-05-02T03:23:09;101339.34;;;17.77;100.00
49377;BME280;35253;34.688;33.040;2023-05-02T03:25:34;101334.81;;;17.78;100.00
49377;BME280;35253;34.688;33.040;2023-05-02T03:28:01;101329.19;;;17.81;100.00
49377;BME280;35253;34.688;33.040;2023-05-02T03:30:27;101343.78;;;17.89;100.00
49377;BME280;35253;34.688;33.040;2023-05-02T03:32:53;101331.03;;;17.91;100.00
49377;BME280;35253;34.688;33.040;2023-05-02T03:35:18;101348.31;;;17.89;100.00
49377;BME280;35253;34.688;33.040;2023-05-02T03:37:44;101345.38;;;17.92;100.00
49377;BME280;35253;34.688;33.040;2023-05-02T03:40:10;101347.72;;;17.96;100.00
49377;BME280;35253;34.688;33.040;2023-05-02T03:42:36;101341.22;;;18.10;100.00
49377;BME280;35253;34.688;33.040;2023-05-02T03:45:09;101348.56;;;18.08;100.00
49377;BME280;35253;34.688;33.040;2023-05-02T03:47:35;101342.09;;;18.11;100.00
49377;BME280;35253;34.688;33.040;2023-05-02T03:50:00;101344.03;;;18.09;100.00
49377;BME280;35253;34.688;33.040;2023-05-02T03:52:28;101346.50;;;18.12;100.00
49377;BME280;35253;34.688;33.040;2023-05-02T03:54:53;101348.69;;;18.18;100.00
49377;BME280;35253;34.688;33.040;2023-05-02T03:57:19;101350.28;;;18.09;100.00
49377;BME280;35253;34.688;33.040;2023-05-02T03:59:45;101339.00;;;18.15;100.00
49377;BME280;35253;34.688;33.040;2023-05-02T04:02:11;101345.41;;;18.25;100.00
49377;BME280;35253;34.688;33.040;2023-05-02T04:04:37;101341.22;;;18.32;100.00
49377;BME280;35253;34.688;33.040;2023-05-02T04:07:04;101352.72;;;18.45;100.00
49377;BME280;35253;34.688;33.040;2023-05-02T04:09:32;101351.03;;;18.56;100.00
49377;BME280;35253;34.688;33.040;2023-05-02T04:11:58;101343.03;;;18.65;100.00
49377;BME280;35253;34.688;33.040;2023-05-02T04:14:24;101347.06;;;18.71;100.00
49377;BME280;35253;34.688;33.040;2023-05-02T04:16:51;101344.59;;;18.79;100.00
49377;BME280;35253;34.688;33.040;2023-05-02T04:19:17;101345.31;;;18.81;100.00
49377;BME280;35253;34.688;33.040;2023-05-02T04:21:44;101351.44;;;18.83;100.00
49377;BME280;35253;34.688;33.040;2023-05-02T04:24:10;101349.00;;;18.91;100.00
49377;BME280;35253;34.688;33.040;2023-05-02T04:26:36;101344.19;;;18.95;100.00
49377;BME280;35253;34.688;33.040;2023-05-02T04:29:02;101346.75;;;18.96;100.00
49377;BME280;35253;34.688;33.040;2023-05-02T04:31:30;101356.06;;;19.03;100.00
49377;BME280;35253;34.688;33.040;2023-05-02T04:33:56;101362.19;;;19.05;100.00
49377;BME280;35253;34.688;33.040;2023-05-02T04:36:22;101358.25;;;19.09;100.00
49377;BME280;35253;34.688;33.040;2023-05-02T04:38:48;101357.72;;;19.15;100.00
49377;BME280;35253;34.688;33.040;2023-05-02T04:41:14;101369.50;;;19.25;100.00
49377;BME280;35253;34.688;33.040;2023-05-02T04:43:40;101360.06;;;19.52;100.00
49377;BME280;35253;34.688;33.040;2023-05-02T04:46:05;101367.25;;;19.83;100.00
49377;BME280;35253;34.688;33.040;2023-05-02T04:48:31;101370.63;;;20.06;100.00
49377;BME280;35253;34.688;33.040;2023-05-02T04:50:58;101379.25;;;20.20;100.00
49377;BME280;35253;34.688;33.040;2023-05-02T04:53:23;101367.91;;;20.27;100.00
49377;BME280;35253;34.688;33.040;2023-05-02T04:55:49;101370.59;;;20.57;100.00
49377;BME280;35253;34.688;33.040;2023-05-02T04:58:15;101366.66;;;20.80;100.00
49377;BME280;35253;34.688;33.040;2023-05-02T05:00:41;101362.41;;;20.87;100.00
49377;BME280;35253;34.688;33.040;2023-05-02T05:03:07;101372.44;;;21.16;100.00
49377;BME280;35253;34.688;33.040;2023-05-02T05:05:32;101368.19;;;21.23;100.00
49377;BME280;35253;34.688;33.040;2023-05-02T05:07:58;101376.44;;;21.31;100.00
49377;BME280;35253;34.688;33.040;2023-05-02T05:10:24;101377.44;;;21.30;100.00
49377;BME280;35253;34.688;33.040;2023-05-02T05:12:49;101378.72;;;21.54;100.00
49377;BME280;35253;34.688;33.040;2023-05-02T05:15:15;101378.44;;;21.57;100.00
49377;BME280;35253;34.688;33.040;2023-05-02T05:17:41;101382.81;;;21.78;100.00
49377;BME280;35253;34.688;33.040;2023-05-02T05:20:07;101380.38;;;22.03;100.00
49377;BME280;35253;34.688;33.040;2023-05-02T05:22:39;101375.53;;;21.88;100.00
49377;BME280;35253;34.688;33.040;2023-05-02T05:25:09;101377.84;;;21.73;100.00
49377;BME280;35253;34.688;33.040;2023-05-02T05:27:36;101386.09;;;21.81;100.00
49377;BME280;35253;34.688;33.040;2023-05-02T05:30:03;101393.38;;;22.10;100.00
49377;BME280;35253;34.688;33.040;2023-05-02T05:32:29;101391.47;;;22.20;100.00
49377;BME280;35253;34.688;33.040;2023-05-02T05:34:54;101397.44;;;22.33;100.00
49377;BME280;35253;34.688;33.040;2023-05-02T05:37:20;101402.16;;;22.31;100.00
49377;BME280;35253;34.688;33.040;2023-05-02T05:39:47;101392.94;;;22.05;100.00
49377;BME280;35253;34.688;33.040;2023-05-02T05:42:13;101396.97;;;21.81;100.00
49377;BME280;35253;34.688;33.040;2023-05-02T05:44:39;101396.00;;;21.63;100.00
49377;BME280;35253;34.688;33.040;2023-05-02T05:47:04;101397.88;;;21.53;100.00
49377;BME280;35253;34.688;33.040;2023-05-02T05:49:30;101406.72;;;21.36;100.00
49377;BME280;35253;34.688;33.040;2023-05-02T05:51:57;101406.28;;;21.31;100.00
49377;BME280;35253;34.688;33.040;2023-05-02T05:54:23;101404.28;;;21.13;100.00
49377;BME280;35253;34.688;33.040;2023-05-02T05:56:49;101414.94;;;21.05;100.00
49377;BME280;35253;34.688;33.040;2023-05-02T05:59:15;101410.91;;;20.90;100.00
49377;BME280;35253;34.688;33.040;2023-05-02T06:01:41;101414.59;;;20.80;100.00
49377;BME280;35253;34.688;33.040;2023-05-02T06:04:06;101423.84;;;20.77;100.00
49377;BME280;35253;34.688;33.040;2023-05-02T06:06:33;101432.25;;;20.74;100.00
49377;BME280;35253;34.688;33.040;2023-05-02T06:08:59;101436.91;;;20.93;100.00
49377;BME280;35253;34.688;33.040;2023-05-02T06:11:25;101434.50;;;21.09;100.00
49377;BME280;35253;34.688;33.040;2023-05-02T06:13:51;101440.41;;;21.14;100.00
49377;BME280;35253;34.688;33.040;2023-05-02T06:16:17;101441.25;;;21.24;100.00
49377;BME280;35253;34.688;33.040;2023-05-02T06:18:43;101439.56;;;21.23;100.00
49377;BME280;35253;34.688;33.040;2023-05-02T06:21:09;101450.63;;;21.10;100.00
49377;BME280;35253;34.688;33.040;2023-05-02T06:23:35;101445.84;;;21.24;100.00
49377;BME280;35253;34.688;33.040;2023-05-02T06:26:01;101456.13;;;21.49;100.00
49377;BME280;35253;34.688;33.040;2023-05-02T06:28:28;101453.00;;;20.94;100.00
49377;BME280;35253;34.688;33.040;2023-05-02T06:33:23;101447.25;;;21.47;100.00
49377;BME280;35253;34.688;33.040;2023-05-02T06:35:52;101450.84;;;21.57;100.00
49377;BME280;35253;34.688;33.040;2023-05-02T06:38:18;101454.44;;;21.67;100.00
49377;BME280;35253;34.688;33.040;2023-05-02T06:40:44;101455.28;;;21.96;100.00
49377;BME280;35253;34.688;33.040;2023-05-02T06:43:11;101466.13;;;21.77;100.00
49377;BME280;35253;34.688;33.040;2023-05-02T06:45:37;101464.97;;;21.99;100.00
49377;BME280;35253;34.688;33.040;2023-05-02T06:48:03;101467.13;;;22.15;100.00
49377;BME280;35253;34.688;33.040;2023-05-02T06:50:29;101468.84;;;22.16;100.00
49377;BME280;35253;34.688;33.040;2023-05-02T06:52:55;101468.13;;;21.94;100.00
49377;BME280;35253;34.688;33.040;2023-05-02T06:55:21;101468.41;;;22.11;100.00
49377;BME280;35253;34.688;33.040;2023-05-02T06:57:48;101467.81;;;22.17;100.00
49377;BME280;35253;34.688;33.040;2023-05-02T07:00:18;101473.41;;;21.86;100.00
49377;BME280;35253;34.688;33.040;2023-05-02T07:02:48;101476.72;;;21.99;100.00
49377;BME280;35253;34.688;33.040;2023-05-02T07:05:14;101474.13;;;22.08;100.00
49377;BME280;35253;34.688;33.040;2023-05-02T07:07:41;101480.72;;;22.05;100.00
49377;BME280;35253;34.688;33.040;2023-05-02T07:10:07;101481.56;;;22.15;100.00
49377;BME280;35253;34.688;33.040;2023-05-02T07:12:33;101484.97;;;22.27;100.00
49377;BME280;35253;34.688;33.040;2023-05-02T07:14:59;101485.69;;;22.29;100.00
49377;BME280;35253;34.688;33.040;2023-05-02T07:17:25;101485.84;;;21.60;100.00
49377;BME280;35253;34.688;33.040;2023-05-02T07:19:52;101494.16;;;21.97;100.00
49377;BME280;35253;34.688;33.040;2023-05-02T07:22:18;101494.72;;;21.72;100.00
49377;BME280;35253;34.688;33.040;2023-05-02T07:24:44;101497.25;;;21.44;100.00
49377;BME280;35253;34.688;33.040;2023-05-02T07:27:11;101495.41;;;21.83;100.00
49377;BME280;35253;34.688;33.040;2023-05-02T07:29:37;101503.31;;;21.96;100.00
49377;BME280;35253;34.688;33.040;2023-05-02T07:32:03;101495.56;;;22.11;100.00
49377;BME280;35253;34.688;33.040;2023-05-02T07:34:30;101502.53;;;21.46;100.00
49377;BME280;35253;34.688;33.040;2023-05-02T07:36:56;101505.25;;;20.96;100.00
49377;BME280;35253;34.688;33.040;2023-05-02T07:39:23;101508.72;;;20.47;100.00
49377;BME280;35253;34.688;33.040;2023-05-02T07:41:51;101510.66;;;21.27;100.00
49377;BME280;35253;34.688;33.040;2023-05-02T07:44:17;101505.41;;;21.54;100.00
49377;BME280;35253;34.688;33.040;2023-05-02T07:46:42;101517.84;;;21.76;100.00
49377;BME280;35253;34.688;33.040;2023-05-02T07:49:08;101509.25;;;21.90;100.00
49377;BME280;35253;34.688;33.040;2023-05-02T07:51:34;101507.88;;;22.05;100.00
49377;BME280;35253;34.688;33.040;2023-05-02T07:54:00;101515.28;;;22.13;100.00
49377;BME280;35253;34.688;33.040;2023-05-02T07:56:26;101509.00;;;22.22;100.00
49377;BME280;35253;34.688;33.040;2023-05-02T07:58:52;101519.16;;;22.20;100.00
49377;BME280;35253;34.688;33.040;2023-05-02T08:01:18;101509.56;;;21.58;100.00
49377;BME280;35253;34.688;33.040;2023-05-02T08:03:44;101508.16;;;20.74;100.00
49377;BME280;35253;34.688;33.040;2023-05-02T08:06:10;101511.84;;;20.73;100.00
49377;BME280;35253;34.688;33.040;2023-05-02T08:08:37;101510.88;;;20.74;100.00
49377;BME280;35253;34.688;33.040;2023-05-02T08:11:03;101510.28;;;21.10;100.00
49377;BME280;35253;34.688;33.040;2023-05-02T08:13:29;101511.78;;;20.84;100.00
49377;BME280;35253;34.688;33.040;2023-05-02T08:15:54;101504.66;;;21.42;100.00
49377;BME280;35253;34.688;33.040;2023-05-02T08:18:24;101509.28;;;21.61;100.00
49377;BME280;35253;34.688;33.040;2023-05-02T08:20:49;101506.97;;;21.85;100.00
49377;BME280;35253;34.688;33.040;2023-05-02T08:23:15;101509.75;;;21.17;100.00
49377;BME280;35253;34.688;33.040;2023-05-02T08:25:41;101504.94;;;21.30;100.00
49377;BME280;35253;34.688;33.040;2023-05-02T08:28:07;101501.53;;;21.28;100.00
49377;BME280;35253;34.688;33.040;2023-05-02T08:30:33;101493.19;;;21.20;100.00
49377;BME280;35253;34.688;33.040;2023-05-02T08:32:59;101496.56;;;21.12;100.00
49377;BME280;35253;34.688;33.040;2023-05-02T08:35:24;101499.00;;;21.74;100.00
49377;BME280;35253;34.688;33.040;2023-05-02T08:37:50;101492.44;;;22.06;100.00
49377;BME280;35253;34.688;33.040;2023-05-02T08:40:16;101488.09;;;22.32;100.00
49377;BME280;35253;34.688;33.040;2023-05-02T08:42:43;101490.06;;;22.39;100.00
49377;BME280;35253;34.688;33.040;2023-05-02T08:45:11;101487.34;;;22.49;100.00
49377;BME280;35253;34.688;33.040;2023-05-02T08:47:39;101478.25;;;22.12;100.00
49377;BME280;35253;34.688;33.040;2023-05-02T08:50:05;101478.75;;;22.54;100.00
49377;BME280;35253;34.688;33.040;2023-05-02T08:52:32;101483.56;;;22.69;100.00
49377;BME280;35253;34.688;33.040;2023-05-02T08:54:59;101478.94;;;22.33;100.00
49377;BME280;35253;34.688;33.040;2023-05-02T08:57:28;101476.94;;;22.35;100.00
49377;BME280;35253;34.688;33.040;2023-05-02T08:59:55;101474.09;;;22.27;100.00
49377;BME280;35253;34.688;33.040;2023-05-02T09:05:10;101470.53;;;22.17;100.00
49377;BME280;35253;34.688;33.040;2023-05-02T09:07:45;101482.97;;;22.66;100.00
49377;BME280;35253;34.688;33.040;2023-05-02T09:10:14;101469.38;;;22.75;100.00
49377;BME280;35253;34.688;33.040;2023-05-02T09:12:40;101466.94;;;23.00;100.00
49377;BME280;35253;34.688;33.040;2023-05-02T09:15:11;101458.91;;;23.08;100.00
49377;BME280;35253;34.688;33.040;2023-05-02T09:17:45;101469.56;;;23.19;100.00
49377;BME280;35253;34.688;33.040;2023-05-02T09:20:12;101467.47;;;22.39;100.00
49377;BME280;35253;34.688;33.040;2023-05-02T09:22:39;101469.97;;;22.03;100.00
49377;BME280;35253;34.688;33.040;2023-05-02T09:25:11;101469.69;;;22.63;100.00
49377;BME280;35253;34.688;33.040;2023-05-02T09:27:56;101459.09;;;22.23;100.00
49377;BME280;35253;34.688;33.040;2023-05-02T09:30:26;101457.28;;;22.87;100.00
49377;BME280;35253;34.688;33.040;2023-05-02T09:32:52;101446.81;;;23.20;100.00
49377;BME280;35253;34.688;33.040;2023-05-02T09:35:20;101447.31;;;23.51;100.00
49377;BME280;35253;34.688;33.040;2023-05-02T09:37:50;101452.44;;;23.71;100.00
49377;BME280;35253;34.688;33.040;2023-05-02T09:40:16;101448.38;;;23.75;100.00
49377;BME280;35253;34.688;33.040;2023-05-02T09:42:42;101447.81;;;23.19;100.00
49377;BME280;35253;34.688;33.040;2023-05-02T09:45:08;101444.78;;;22.67;100.00
49377;BME280;35253;34.688;33.040;2023-05-02T09:47:50;101441.03;;;23.23;100.00
49377;BME280;35253;34.688;33.040;2023-05-02T09:50:33;101444.41;;;23.70;100.00
49377;BME280;35253;34.688;33.040;2023-05-02T09:53:07;101448.38;;;22.95;100.00
49377;BME280;35253;34.688;33.040;2023-05-02T09:55:34;101446.88;;;23.28;100.00
49377;BME280;35253;34.688;33.040;2023-05-02T09:58:00;101442.88;;;23.05;100.00
49377;BME280;35253;34.688;33.040;2023-05-02T10:00:42;101445.47;;;23.51;100.00
49377;BME280;35253;34.688;33.040;2023-05-02T10:03:09;101440.16;;;24.11;100.00
49377;BME280;35253;34.688;33.040;2023-05-02T10:05:37;101440.22;;;24.45;100.00
49377;BME280;35253;34.688;33.040;2023-05-02T10:08:05;101438.88;;;24.75;100.00
49377;BME280;35253;34.688;33.040;2023-05-02T10:13:02;101432.25;;;23.11;100.00
49377;BME280;35253;34.688;33.040;2023-05-02T10:15:30;101438.16;;;22.79;100.00
49377;BME280;35253;34.688;33.040;2023-05-02T10:17:58;101429.53;;;23.11;100.00
49377;BME280;35253;34.688;33.040;2023-05-02T10:20:31;101424.22;;;24.16;100.00
49377;BME280;35253;34.688;33.040;2023-05-02T10:22:59;101423.16;;;24.77;100.00
49377;BME280;35253;34.688;33.040;2023-05-02T10:25:27;101425.56;;;25.13;100.00
49377;BME280;35253;34.688;33.040;2023-05-02T10:27:56;101428.31;;;25.38;100.00
49377;BME280;35253;34.688;33.040;2023-05-02T10:30:25;101420.69;;;25.82;100.00
49377;BME280;35253;34.688;33.040;2023-05-02T10:32:52;101414.38;;;25.81;100.00
49377;BME280;35253;34.688;33.040;2023-05-02T10:35:19;101416.59;;;26.02;100.00
49377;BME280;35253;34.688;33.040;2023-05-02T10:37:46;101420.31;;;26.17;100.00
49377;BME280;35253;34.688;33.040;2023-05-02T10:40:13;101413.97;;;24.78;100.00
49377;BME280;35253;34.688;33.040;2023-05-02T10:42:44;101417.66;;;23.65;100.00
49377;BME280;35253;34.688;33.040;2023-05-02T10:45:12;101421.78;;;24.73;100.00
49377;BME280;35253;34.688;33.040;2023-05-02T10:48:20;101432.09;;;23.84;100.00
49377;BME280;35253;34.688;33.040;2023-05-02T10:53:28;101424.34;;;25.16;100.00
49377;BME280;35253;34.688;33.040;2023-05-02T10:56:19;101424.44;;;25.73;100.00
49377;BME280;35253;34.688;33.040;2023-05-02T10:59:26;101422.56;;;26.22;100.00
49377;BME280;35253;34.688;33.040;2023-05-02T11:01:52;101420.56;;;26.63;100.00
49377;BME280;35253;34.688;33.040;2023-05-02T11:04:17;101421.41;;;26.55;100.00
49377;BME280;35253;34.688;33.040;2023-05-02T11:11:47;101422.66;;;26.44;100.00
49377;BME280;35253;34.688;33.040;2023-05-02T11:24:47;101430.22;;;26.34;100.00
49377;BME280;35253;34.688;33.040;2023-05-02T11:30:07;101435.59;;;25.05;100.00
49377;BME280;35253;34.688;33.040;2023-05-02T11:35:28;101434.66;;;26.03;100.00
49377;BME280;35253;34.688;33.040;2023-05-02T11:38:10;101428.22;;;25.80;100.00
49377;BME280;35253;34.688;33.040;2023-05-02T11:40:36;101432.63;;;26.21;100.00
49377;BME280;35253;34.688;33.040;2023-05-02T11:43:15;101426.41;;;25.14;100.00
49377;BME280;35253;34.688;33.040;2023-05-02T11:45:41;101423.91;;;25.53;100.00
49377;BME280;35253;34.688;33.040;2023-05-02T11:48:08;101423.72;;;26.11;100.00
49377;BME280;35253;34.688;33.040;2023-05-02T11:53:12;101426.31;;;25.80;100.00
49377;BME280;35253;34.688;33.040;2023-05-02T11:55:50;101414.50;;;24.81;100.00
49377;BME280;35253;34.688;33.040;2023-05-02T11:58:19;101416.41;;;26.03;100.00
49377;BME280;35253;34.688;33.040;2023-05-02T12:00:46;101413.91;;;26.57;100.00
49377;BME280;35253;34.688;33.040;2023-05-02T12:03:32;101406.41;;;26.90;97.67
49377;BME280;35253;34.688;33.040;2023-05-02T12:06:12;101412.25;;;25.19;95.73
49377;BME280;35253;34.688;33.040;2023-05-02T12:08:38;101405.44;;;24.81;97.50
49377;BME280;35253;34.688;33.040;2023-05-02T12:11:05;101406.88;;;24.93;100.00
49377;BME280;35253;34.688;33.040;2023-05-02T12:13:31;101405.28;;;26.13;95.63
49377;BME280;35253;34.688;33.040;2023-05-02T12:15:57;101416.47;;;26.51;93.22
49377;BME280;35253;34.688;33.040;2023-05-02T12:18:24;101421.25;;;26.57;99.32
49377;BME280;35253;34.688;33.040;2023-05-02T12:20:52;101406.84;;;25.67;100.00
49377;BME280;35253;34.688;33.040;2023-05-02T12:23:20;101407.22;;;26.60;100.00
49377;BME280;35253;34.688;33.040;2023-05-02T12:25:46;101403.13;;;24.94;100.00
49377;BME280;35253;34.688;33.040;2023-05-02T12:28:13;101412.09;;;25.28;100.00
49377;BME280;35253;34.688;33.040;2023-05-02T12:30:39;101415.19;;;24.49;100.00
49377;BME280;35253;34.688;33.040;2023-05-02T12:33:05;101410.47;;;25.01;100.00
49377;BME280;35253;34.688;33.040;2023-05-02T12:35:32;101398.78;;;25.49;100.00
49377;BME280;35253;34.688;33.040;2023-05-02T12:38:16;101405.31;;;26.05;100.00
49377;BME280;35253;34.688;33.040;2023-05-02T12:41:00;101408.56;;;26.00;100.00
49377;BME280;35253;34.688;33.040;2023-05-02T12:43:26;101404.84;;;24.95;100.00
49377;BME280;35253;34.688;33.040;2023-05-02T12:46:08;101407.25;;;24.22;100.00
49377;BME280;35253;34.688;33.040;2023-05-02T12:48:34;101415.59;;;24.29;100.00
49377;BME280;35253;34.688;33.040;2023-05-02T12:51:00;101408.47;;;24.10;100.00
49377;BME280;35253;34.688;33.040;2023-05-02T12:53:42;101407.31;;;24.12;100.00
49377;BME280;35253;34.688;33.040;2023-05-02T12:56:09;101403.50;;;24.57;100.00
49377;BME280;35253;34.688;33.040;2023-05-02T12:58:47;101413.38;;;24.24;100.00
49377;BME280;35253;34.688;33.040;2023-05-02T13:01:14;101409.34;;;24.36;100.00
49377;BME280;35253;34.688;33.040;2023-05-02T13:03:41;101408.38;;;24.45;100.00
49377;BME280;35253;34.688;33.040;2023-05-02T13:06:07;101412.28;;;24.43;100.00
49377;BME280;35253;34.688;33.040;2023-05-02T13:08:34;101415.53;;;23.95;100.00
49377;BME280;35253;34.688;33.040;2023-05-02T13:11:01;101414.38;;;24.23;100.00
49377;BME280;35253;34.688;33.040;2023-05-02T13:13:28;101416.63;;;23.84;100.00
49377;BME280;35253;34.688;33.040;2023-05-02T13:15:54;101418.06;;;23.96;100.00
49377;BME280;35253;34.688;33.040;2023-05-02T13:18:20;101414.41;;;23.44;100.00
49377;BME280;35253;34.688;33.040;2023-05-02T13:20:46;101412.19;;;22.95;100.00
49377;BME280;35253;34.688;33.040;2023-05-02T13:23:11;101410.25;;;22.77;100.00
49377;BME280;35253;34.688;33.040;2023-05-02T13:25:37;101409.94;;;23.08;100.00
49377;BME280;35253;34.688;33.040;2023-05-02T13:28:03;101414.28;;;23.01;100.00
49377;BME280;35253;34.688;33.040;2023-05-02T13:30:29;101403.00;;;22.68;100.00
49377;BME280;35253;34.688;33.040;2023-05-02T13:32:55;101402.16;;;22.68;100.00
49377;BME280;35253;34.688;33.040;2023-05-02T13:35:23;101410.75;;;22.73;100.00